Time;durP1;ratioP1;P1;durP2;ratioP2;P2;SDS_P1;SDS_P2;PMS_P1;PMS_P2;Temp;Humidity;BMP_temperature;BMP_pressure;BME280_temperature;BME280_humidity;BME280_pressure;Samples;Min_cycle;Max_cycle;Signal;HPM_P1;HPM_P2
2023/06/12 00:02:18;;;;;;;24.23;13.75;;;;;;;;;;5135411;27;20028;-75
2023/06/12 00:04:45;;;;;;;18.42;13.85;;;;;;;;;;5134948;27;20038;-76
2023/06/12 00:07:11;;;;;;;21.08;13.77;;;;;;;;;;5099725;27;20023;-76
2023/06/12 00:09:37;;;;;;;17.02;13.00;;;;;;;;;;5134480;27;20062;-76
2023/06/12 00:12:04;;;;;;;16.42;13.13;;;;;;;;;;5116147;27;20525;-76
2023/06/12 00:14:30;;;;;;;19.20;14.45;;;;;;;;;;5134693;27;20246;-77
2023/06/12 00:16:56;;;;;;;22.17;13.82;;;;;;;;;;5115843;27;20027;-77
2023/06/12 00:19:21;;;;;;;20.45;14.25;;;;;;;;;;5115855;27;20421;-76
2023/06/12 00:21:48;;;;;;;16.88;13.10;;;;;;;;;;5134013;27;20066;-76
2023/06/12 00:24:14;;;;;;;18.58;14.30;;;;;;;;;;5134202;27;20118;-76
2023/06/12 00:26:40;;;;;;;23.17;15.40;;;;;;;;;;5115632;27;20561;-75
2023/06/12 00:29:06;;;;;;;18.48;13.40;;;;;;;;;;5115607;27;20054;-77
2023/06/12 00:31:32;;;;;;;26.02;13.70;;;;;;;;;;5134075;27;20043;-76
2023/06/12 00:33:58;;;;;;;17.30;12.77;;;;;;;;;;5115360;27;20027;-77
2023/06/12 00:36:24;;;;;;;17.33;14.50;;;;;;;;;;5133921;27;20118;-79
2023/06/12 00:38:52;;;;;;;16.83;13.15;;;;;;;;;;5133629;27;20118;-76
2023/06/12 00:41:18;;;;;;;18.00;14.07;;;;;;;;;;5115564;27;20088;-76
2023/06/12 00:43:44;;;;;;;17.48;15.48;;;;;;;;;;5133771;27;20035;-77
2023/06/12 00:46:12;;;;;;;16.88;13.45;;;;;;;;;;5098759;27;20514;-77
2023/06/12 00:48:39;;;;;;;17.02;12.63;;;;;;;;;;5098191;27;20095;-77
2023/06/12 00:51:08;;;;;;;13.98;12.50;;;;;;;;;;5115604;27;20039;-78
2023/06/12 00:53:34;;;;;;;14.73;11.40;;;;;;;;;;5115567;27;20129;-77
2023/06/12 00:56:01;;;;;;;11.85;10.68;;;;;;;;;;5141473;27;20039;-76
2023/06/12 00:58:27;;;;;;;12.10;10.45;;;;;;;;;;5130091;27;20035;-76
2023/06/12 01:00:54;;;;;;;12.25;10.35;;;;;;;;;;5133979;27;20043;-77
2023/06/12 01:03:21;;;;;;;12.18;10.45;;;;;;;;;;5115014;27;20087;-76
2023/06/12 01:05:48;;;;;;;13.77;9.90;;;;;;;;;;5133442;27;20118;-76
2023/06/12 01:08:26;;;;;;;12.27;8.95;;;;;;;;;;5097445;27;20051;-76
2023/06/12 01:10:57;;;;;;;14.15;9.40;;;;;;;;;;5114722;27;20046;-77
2023/06/12 01:13:23;;;;;;;11.60;8.43;;;;;;;;;;5133410;27;20092;-77
2023/06/12 01:15:49;;;;;;;10.02;8.43;;;;;;;;;;5097738;27;20039;-76
2023/06/12 01:18:15;;;;;;;8.65;7.78;;;;;;;;;;5114791;27;20023;-75
2023/06/12 01:20:42;;;;;;;8.98;7.60;;;;;;;;;;5114645;27;20027;-76
2023/06/12 01:23:27;;;;;;;9.40;6.75;;;;;;;;;;5114818;27;20035;-76
2023/06/12 01:26:14;;;;;;;7.70;7.00;;;;;;;;;;5114540;27;20035;-76
2023/06/12 01:28:43;;;;;;;11.27;7.43;;;;;;;;;;5063475;27;20100;-76
2023/06/12 01:31:13;;;;;;;9.23;6.32;;;;;;;;;;5132849;27;20039;-77
2023/06/12 01:33:40;;;;;;;7.05;6.43;;;;;;;;;;5098103;27;20045;-77
2023/06/12 01:36:08;;;;;;;9.30;6.13;;;;;;;;;;5114486;27;20039;-77
2023/06/12 01:38:35;;;;;;;6.15;5.53;;;;;;;;;;5114871;27;20129;-77
2023/06/12 01:41:00;;;;;;;7.20;5.82;;;;;;;;;;5132516;27;20039;-76
2023/06/12 01:43:27;;;;;;;6.53;5.57;;;;;;;;;;5097751;27;20039;-78
2023/06/12 01:45:53;;;;;;;8.90;6.07;;;;;;;;;;5097136;27;20505;-77
2023/06/12 01:48:19;;;;;;;8.13;5.40;;;;;;;;;;5097300;27;20509;-77
2023/06/12 01:50:45;;;;;;;8.30;6.25;;;;;;;;;;5132418;27;20595;-77
2023/06/12 01:53:13;;;;;;;8.35;5.60;;;;;;;;;;5132465;27;20061;-76
2023/06/12 01:55:41;;;;;;;10.73;5.72;;;;;;;;;;5132537;27;20039;-77
2023/06/12 01:58:08;;;;;;;8.00;5.78;;;;;;;;;;5113877;27;20042;-77
2023/06/12 02:00:53;;;;;;;11.18;5.00;;;;;;;;;;5132460;27;20409;-76
2023/06/12 02:03:22;;;;;;;6.40;4.97;;;;;;;;;;5114099;27;20050;-77
2023/06/12 02:05:50;;;;;;;6.55;4.97;;;;;;;;;;5113835;27;20067;-77
2023/06/12 02:08:16;;;;;;;10.15;4.78;;;;;;;;;;5113593;27;20051;-78
2023/06/12 02:10:43;;;;;;;5.80;5.30;;;;;;;;;;5113939;27;20456;-75
2023/06/12 02:13:09;;;;;;;8.35;4.72;;;;;;;;;;5113307;27;20122;-76
2023/06/12 02:15:35;;;;;;;4.93;4.25;;;;;;;;;;5132152;27;20039;-75
2023/06/12 02:18:01;;;;;;;6.88;4.43;;;;;;;;;;5096558;27;20103;-75
2023/06/12 02:20:29;;;;;;;5.90;4.10;;;;;;;;;;5113702;27;20436;-76
2023/06/12 02:22:55;;;;;;;8.52;4.47;;;;;;;;;;5113252;27;20031;-76
2023/06/12 02:25:21;;;;;;;5.75;3.95;;;;;;;;;;5113493;27;20045;-76
2023/06/12 02:27:48;;;;;;;8.15;4.15;;;;;;;;;;5113395;27;20035;-76
2023/06/12 02:30:14;;;;;;;6.63;3.92;;;;;;;;;;5131791;27;20058;-76
2023/06/12 02:32:41;;;;;;;10.15;4.35;;;;;;;;;;5131846;27;20070;-78
2023/06/12 02:35:08;;;;;;;6.50;4.32;;;;;;;;;;5096498;27;20042;-75
2023/06/12 02:37:36;;;;;;;6.45;3.75;;;;;;;;;;5113562;27;20054;-76
2023/06/12 02:40:03;;;;;;;5.68;4.00;;;;;;;;;;5113197;27;20496;-76
2023/06/12 02:42:31;;;;;;;9.45;3.70;;;;;;;;;;5097111;27;20030;-76
2023/06/12 02:44:58;;;;;;;4.18;3.78;;;;;;;;;;5096079;27;20083;-78
2023/06/12 02:47:24;;;;;;;4.85;3.67;;;;;;;;;;5124853;27;20035;-75
2023/06/12 02:49:50;;;;;;;6.97;3.70;;;;;;;;;;5125753;27;20039;-78
2023/06/12 02:52:22;;;;;;;9.00;4.75;;;;;;;;;;5113788;27;20109;-75
2023/06/12 02:54:48;;;;;;;3.60;3.30;;;;;;;;;;5112984;27;20548;-78
2023/06/12 02:57:14;;;;;;;4.13;3.50;;;;;;;;;;5131220;27;20031;-77
2023/06/12 02:59:40;;;;;;;3.83;3.50;;;;;;;;;;5113042;27;20039;-75
2023/06/12 03:02:15;;;;;;;3.20;3.00;;;;;;;;;;5112770;28;20035;-76
2023/06/12 03:04:48;;;;;;;3.28;3.00;;;;;;;;;;5113024;27;20039;-75
2023/06/12 03:07:16;;;;;;;3.50;3.20;;;;;;;;;;5079113;27;20382;-76
2023/06/12 03:09:43;;;;;;;7.30;3.30;;;;;;;;;;5092574;28;20544;-77
2023/06/12 03:12:10;;;;;;;5.95;3.35;;;;;;;;;;5110414;28;20505;-75
2023/06/12 03:14:36;;;;;;;4.50;3.13;;;;;;;;;;5110774;28;20104;-77
2023/06/12 03:17:03;;;;;;;9.73;3.45;;;;;;;;;;5092225;28;20046;-77
2023/06/12 03:19:30;;;;;;;3.40;3.10;;;;;;;;;;5109351;28;20047;-77
2023/06/12 03:21:56;;;;;;;5.63;3.33;;;;;;;;;;5110526;28;20028;-77
2023/06/12 03:24:22;;;;;;;3.78;2.85;;;;;;;;;;5110877;28;20036;-76
2023/06/12 03:26:48;;;;;;;5.70;3.03;;;;;;;;;;5113277;28;20041;-77
2023/06/12 03:29:14;;;;;;;9.27;2.92;;;;;;;;;;5096553;28;20414;-77
2023/06/12 03:31:41;;;;;;;3.58;3.10;;;;;;;;;;5097002;28;20040;-76
2023/06/12 03:34:08;;;;;;;3.55;2.80;;;;;;;;;;5096412;28;20450;-76
2023/06/12 03:36:37;;;;;;;6.15;3.03;;;;;;;;;;5113901;28;20131;-77
2023/06/12 03:39:05;;;;;;;2.85;2.65;;;;;;;;;;5114525;28;20092;-77
2023/06/12 03:41:32;;;;;;;3.40;3.10;;;;;;;;;;5116678;28;20096;-77
2023/06/12 03:44:00;;;;;;;4.68;2.85;;;;;;;;;;5127956;28;20032;-76
2023/06/12 03:46:26;;;;;;;3.17;2.85;;;;;;;;;;5125358;28;20040;-76
2023/06/12 03:48:52;;;;;;;6.47;2.83;;;;;;;;;;5117570;28;20039;-77
2023/06/12 03:51:19;;;;;;;3.33;2.30;;;;;;;;;;5113306;28;20072;-77
2023/06/12 03:53:46;;;;;;;3.92;2.65;;;;;;;;;;5096093;28;20027;-77
2023/06/12 03:56:11;;;;;;;9.23;2.78;;;;;;;;;;5113100;28;20043;-77
2023/06/12 03:58:38;;;;;;;4.05;2.65;;;;;;;;;;5113027;28;20092;-76
2023/06/12 04:01:04;;;;;;;3.35;2.92;;;;;;;;;;5112801;28;20045;-77
2023/06/12 04:03:30;;;;;;;3.20;2.88;;;;;;;;;;5114170;28;20074;-77
2023/06/12 04:05:57;;;;;;;4.25;2.70;;;;;;;;;;5112960;28;20117;-77
2023/06/12 04:08:23;;;;;;;2.58;2.38;;;;;;;;;;5112640;28;20533;-77
2023/06/12 04:10:50;;;;;;;6.78;3.08;;;;;;;;;;5113408;28;20058;-78
2023/06/12 04:13:16;;;;;;;3.20;2.53;;;;;;;;;;5096153;28;20088;-77
2023/06/12 04:15:42;;;;;;;3.17;2.95;;;;;;;;;;5112649;28;20051;-78
2023/06/12 04:18:09;;;;;;;7.07;2.53;;;;;;;;;;5113539;27;20032;-78
2023/06/12 04:20:38;;;;;;;5.97;2.65;;;;;;;;;;5114201;28;20062;-78
2023/06/12 04:23:04;;;;;;;2.60;2.40;;;;;;;;;;5113572;28;20118;-77
2023/06/12 04:25:32;;;;;;;4.22;2.80;;;;;;;;;;5095875;28;20471;-78
2023/06/12 04:28:02;;;;;;;2.65;2.45;;;;;;;;;;5112527;28;20457;-77
2023/06/12 04:30:31;;;;;;;3.50;2.50;;;;;;;;;;5112423;28;20514;-77
2023/06/12 04:32:58;;;;;;;2.47;2.25;;;;;;;;;;5112408;28;20038;-77
2023/06/12 04:35:26;;;;;;;5.07;2.88;;;;;;;;;;5113565;27;20039;-76
2023/06/12 04:37:53;;;;;;;4.80;2.50;;;;;;;;;;5114142;28;20030;-78
2023/06/12 04:40:24;;;;;;;3.55;2.72;;;;;;;;;;5131207;28;20028;-77
2023/06/12 04:42:56;;;;;;;6.47;3.00;;;;;;;;;;5096097;28;20036;-76
2023/06/12 04:45:24;;;;;;;2.78;2.30;;;;;;;;;;5112365;28;20441;-77
2023/06/12 04:47:50;;;;;;;3.05;2.85;;;;;;;;;;5112255;28;20115;-77
2023/06/12 04:50:16;;;;;;;3.15;2.30;;;;;;;;;;5111782;28;20054;-76
2023/06/12 04:52:43;;;;;;;2.50;2.40;;;;;;;;;;5113125;28;20038;-77
2023/06/12 04:55:09;;;;;;;1.85;1.67;;;;;;;;;;5111727;28;20039;-76
2023/06/12 04:57:43;;;;;;;2.60;2.40;;;;;;;;;;5113093;28;20034;-76
2023/06/12 05:00:15;;;;;;;2.60;2.42;;;;;;;;;;5094567;28;20465;-77
2023/06/12 05:02:43;;;;;;;2.63;2.42;;;;;;;;;;5111730;28;20040;-75
2023/06/12 05:05:09;;;;;;;5.03;2.53;;;;;;;;;;5111430;28;20047;-78
2023/06/12 05:07:36;;;;;;;3.88;2.20;;;;;;;;;;5113091;28;20072;-76
2023/06/12 05:10:03;;;;;;;4.50;2.33;;;;;;;;;;5077769;28;20584;-77
2023/06/12 05:12:32;;;;;;;2.50;2.30;;;;;;;;;;5111590;28;20590;-78
2023/06/12 05:14:59;;;;;;;2.28;2.05;;;;;;;;;;5111410;28;20175;-77
2023/06/12 05:17:27;;;;;;;4.32;2.40;;;;;;;;;;5111382;28;20039;-78
2023/06/12 05:19:54;;;;;;;3.85;2.15;;;;;;;;;;5112732;28;20103;-77
2023/06/12 05:22:21;;;;;;;2.40;2.20;;;;;;;;;;5094721;28;20530;-77
2023/06/12 05:24:47;;;;;;;3.35;1.90;;;;;;;;;;5111173;28;20039;-76
2023/06/12 05:27:13;;;;;;;9.85;2.10;;;;;;;;;;5111028;28;20031;-78
2023/06/12 05:29:40;;;;;;;2.00;1.90;;;;;;;;;;5094309;28;20039;-77
2023/06/12 05:32:07;;;;;;;2.78;1.73;;;;;;;;;;5110919;28;20027;-78
2023/06/12 05:34:35;;;;;;;2.80;2.10;;;;;;;;;;5111264;28;20036;-78
2023/06/12 05:37:02;;;;;;;2.90;2.08;;;;;;;;;;5110780;28;20039;-78
2023/06/12 05:39:28;;;;;;;4.00;2.22;;;;;;;;;;5094121;28;20039;-78
2023/06/12 05:41:54;;;;;;;2.08;1.90;;;;;;;;;;5112184;28;20118;-77
2023/06/12 05:44:20;;;;;;;3.13;2.15;;;;;;;;;;5110983;28;20572;-77
2023/06/12 05:46:50;;;;;;;2.30;2.20;;;;;;;;;;5111166;28;20059;-77
2023/06/12 05:49:16;;;;;;;2.05;1.90;;;;;;;;;;5110930;28;20078;-76
2023/06/12 05:51:42;;;;;;;2.72;2.10;;;;;;;;;;5110950;28;20043;-78
2023/06/12 05:54:09;;;;;;;3.60;2.45;;;;;;;;;;5110574;28;20543;-76
2023/06/12 05:56:35;;;;;;;3.17;2.17;;;;;;;;;;5110802;28;20505;-77
2023/06/12 05:59:01;;;;;;;2.72;2.10;;;;;;;;;;5093460;28;20027;-77
2023/06/12 06:01:31;;;;;;;2.25;2.08;;;;;;;;;;5110791;28;20039;-77
2023/06/12 06:03:58;;;;;;;2.85;2.20;;;;;;;;;;5110498;28;20282;-76
2023/06/12 06:06:30;;;;;;;3.45;1.80;;;;;;;;;;5094466;28;20255;-78
2023/06/12 06:09:00;;;;;;;4.88;1.90;;;;;;;;;;5110379;28;20071;-80
2023/06/12 06:11:28;;;;;;;2.08;1.88;;;;;;;;;;5110629;28;20038;-77
2023/06/12 06:13:54;;;;;;;4.00;2.10;;;;;;;;;;5076866;28;20552;-78
2023/06/12 06:16:20;;;;;;;1.67;1.58;;;;;;;;;;5111523;28;20100;-78
2023/06/12 06:18:46;;;;;;;1.77;1.67;;;;;;;;;;5111913;28;20489;-76
2023/06/12 06:21:13;;;;;;;2.47;1.35;;;;;;;;;;5110112;28;20593;-77
2023/06/12 06:23:39;;;;;;;2.35;1.60;;;;;;;;;;5093565;28;20058;-78
2023/06/12 06:26:06;;;;;;;2.30;1.77;;;;;;;;;;5110090;28;20369;-78
2023/06/12 06:28:32;;;;;;;3.42;1.88;;;;;;;;;;5114617;28;20513;-78
2023/06/12 06:30:59;;;;;;;6.88;1.92;;;;;;;;;;5129713;28;20115;-77
2023/06/12 06:33:26;;;;;;;2.08;1.98;;;;;;;;;;5112333;28;20171;-76
2023/06/12 06:35:52;;;;;;;5.20;1.65;;;;;;;;;;5112232;28;20036;-78
2023/06/12 06:38:21;;;;;;;1.60;1.50;;;;;;;;;;5109880;28;20023;-76
2023/06/12 06:40:48;;;;;;;2.38;2.17;;;;;;;;;;5093031;28;20180;-78
2023/06/12 06:43:16;;;;;;;1.90;1.75;;;;;;;;;;5109638;28;20040;-79
2023/06/12 06:45:48;;;;;;;1.88;1.75;;;;;;;;;;5109987;28;20078;-78
2023/06/12 06:48:14;;;;;;;2.90;1.60;;;;;;;;;;5109612;28;20031;-79
2023/06/12 06:50:41;;;;;;;2.17;1.80;;;;;;;;;;5109846;28;20039;-78
2023/06/12 06:53:08;;;;;;;1.70;1.60;;;;;;;;;;5109317;28;20038;-78
2023/06/12 06:55:34;;;;;;;2.58;2.03;;;;;;;;;;5111465;27;20039;-77
2023/06/12 06:58:03;;;;;;;1.80;1.70;;;;;;;;;;5110013;28;20031;-77
2023/06/12 07:00:31;;;;;;;2.80;2.00;;;;;;;;;;5110075;28;20067;-77
2023/06/12 07:02:57;;;;;;;1.90;1.80;;;;;;;;;;5111718;28;20498;-77
2023/06/12 07:05:27;;;;;;;1.90;1.80;;;;;;;;;;5112752;28;20497;-78
2023/06/12 07:07:53;;;;;;;1.67;1.58;;;;;;;;;;5120496;27;20066;-78
2023/06/12 07:10:20;;;;;;;5.18;1.60;;;;;;;;;;5124374;27;20525;-77
2023/06/12 07:12:48;;;;;;;3.05;1.70;;;;;;;;;;5114496;28;20084;-77
2023/06/12 07:15:14;;;;;;;2.05;1.50;;;;;;;;;;5112781;27;20046;-77
2023/06/12 07:17:44;;;;;;;;;;;;;;;;;;5096287;27;20095;-77
2023/06/12 07:20:10;;;;;;;5.22;1.70;;;;;;;;;;5112784;27;20389;-77
2023/06/12 07:22:36;;;;;;;7.05;1.77;;;;;;;;;;5131234;27;20494;-78
2023/06/12 07:25:03;;;;;;;2.25;1.75;;;;;;;;;;5112966;27;20039;-79
2023/06/12 07:27:30;;;;;;;3.08;1.60;;;;;;;;;;5131301;27;20039;-78
2023/06/12 07:29:56;;;;;;;2.22;1.63;;;;;;;;;;5112785;27;20054;-78
2023/06/12 07:32:23;;;;;;;2.40;1.50;;;;;;;;;;5112577;28;20350;-78
2023/06/12 07:34:51;;;;;;;1.80;1.52;;;;;;;;;;5112776;27;20030;-78
2023/06/12 07:37:20;;;;;;;2.20;1.98;;;;;;;;;;5079016;27;20505;-78
2023/06/12 07:39:48;;;;;;;2.10;1.90;;;;;;;;;;5112822;27;20049;-77
2023/06/12 07:42:14;;;;;;;1.75;1.60;;;;;;;;;;5132100;27;20121;-78
2023/06/12 07:44:40;;;;;;;5.80;2.00;;;;;;;;;;5096028;27;20035;-78
2023/06/12 07:47:07;;;;;;;13.13;2.10;;;;;;;;;;5095734;28;20123;-78
2023/06/12 07:49:33;;;;;;;7.30;2.00;;;;;;;;;;5095936;27;20126;-78
2023/06/12 07:52:00;;;;;;;2.60;1.83;;;;;;;;;;5113137;28;20344;-79
2023/06/12 07:54:26;;;;;;;2.72;2.25;;;;;;;;;;5095212;28;20035;-78
2023/06/12 07:56:53;;;;;;;5.38;2.15;;;;;;;;;;5112920;28;20408;-79
2023/06/12 07:59:20;;;;;;;2.80;1.88;;;;;;;;;;5113041;28;20497;-78
2023/06/12 08:01:57;;;;;;;3.28;1.75;;;;;;;;;;5098427;27;20054;-79
2023/06/12 08:04:23;;;;;;;1.80;1.70;;;;;;;;;;5136249;27;20530;-78
2023/06/12 08:06:49;;;;;;;2.08;1.98;;;;;;;;;;5118331;27;20088;-78
2023/06/12 08:09:20;;;;;;;3.58;1.85;;;;;;;;;;5116953;27;20469;-78
2023/06/12 08:11:46;;;;;;;8.93;1.90;;;;;;;;;;5102850;27;20073;-78
2023/06/12 08:14:13;;;;;;;3.65;1.77;;;;;;;;;;5106338;27;20031;-77
2023/06/12 08:16:41;;;;;;;1.70;1.60;;;;;;;;;;5105172;27;20035;-77
2023/06/12 08:19:08;;;;;;;3.25;1.70;;;;;;;;;;5123021;27;20087;-77
2023/06/12 08:21:36;;;;;;;1.70;1.60;;;;;;;;;;5110387;27;20055;-77
2023/06/12 08:24:03;;;;;;;2.38;1.95;;;;;;;;;;5124018;27;20493;-78
2023/06/12 08:26:30;;;;;;;5.10;1.80;;;;;;;;;;5108505;27;20031;-79
2023/06/12 08:28:57;;;;;;;2.35;1.77;;;;;;;;;;5122496;27;20081;-78
2023/06/12 08:31:28;;;;;;;1.70;1.48;;;;;;;;;;5121125;27;20512;-78
2023/06/12 08:33:54;;;;;;;3.05;1.80;;;;;;;;;;5135643;27;20035;-78
2023/06/12 08:36:20;;;;;;;1.40;1.40;;;;;;;;;;5116531;27;20095;-78
2023/06/12 08:38:46;;;;;;;3.35;1.55;;;;;;;;;;5115928;27;20129;-78
2023/06/12 08:41:16;;;;;;;2.25;2.03;;;;;;;;;;5115838;27;20039;-77
2023/06/12 08:43:42;;;;;;;3.08;1.88;;;;;;;;;;5115772;27;20073;-78
2023/06/12 08:46:08;;;;;;;2.08;1.90;;;;;;;;;;5098428;27;20135;-78
2023/06/12 08:48:34;;;;;;;2.45;1.80;;;;;;;;;;5115611;27;20042;-78
2023/06/12 08:51:00;;;;;;;5.78;1.80;;;;;;;;;;5099083;27;20505;-79
2023/06/12 08:53:27;;;;;;;2.85;1.70;;;;;;;;;;5134049;27;20404;-77
2023/06/12 08:55:54;;;;;;;1.70;1.60;;;;;;;;;;5134136;27;20031;-78
2023/06/12 08:58:20;;;;;;;8.70;1.90;;;;;;;;;;5115361;27;20103;-79
2023/06/12 09:00:46;;;;;;;2.92;2.10;;;;;;;;;;5133710;27;20474;-77
2023/06/12 09:03:13;;;;;;;3.63;2.10;;;;;;;;;;5115267;27;20043;-78
2023/06/12 09:05:39;;;;;;;2.33;1.77;;;;;;;;;;5134630;27;20114;-78
2023/06/12 09:08:05;;;;;;;1.77;1.63;;;;;;;;;;5133751;27;20098;-77
2023/06/12 09:10:31;;;;;;;2.25;1.70;;;;;;;;;;5133646;27;20047;-79
2023/06/12 09:12:57;;;;;;;5.15;1.95;;;;;;;;;;5133929;27;20393;-78
2023/06/12 09:15:23;;;;;;;3.42;1.77;;;;;;;;;;5115535;27;20038;-79
2023/06/12 09:17:53;;;;;;;4.30;1.85;;;;;;;;;;5133710;27;20023;-77
2023/06/12 09:20:27;;;;;;;6.05;1.73;;;;;;;;;;5133320;27;20070;-79
2023/06/12 09:22:53;;;;;;;5.07;1.83;;;;;;;;;;5134032;27;20057;-76
2023/06/12 09:25:20;;;;;;;2.85;1.83;;;;;;;;;;5115166;27;20043;-77
2023/06/12 09:27:46;;;;;;;1.73;1.63;;;;;;;;;;5133938;27;20030;-78
2023/06/12 09:30:15;;;;;;;3.78;1.80;;;;;;;;;;5115086;27;20047;-78
2023/06/12 09:32:44;;;;;;;2.47;1.80;;;;;;;;;;5114896;27;20023;-78
2023/06/12 09:35:11;;;;;;;2.03;1.83;;;;;;;;;;5133013;27;20039;-78
2023/06/12 09:37:37;;;;;;;10.23;2.20;;;;;;;;;;5132690;27;20023;-77
2023/06/12 09:40:10;;;;;;;4.03;2.30;;;;;;;;;;5133624;27;20124;-77
2023/06/12 09:42:37;;;;;;;2.10;1.70;;;;;;;;;;5133280;27;20035;-77
2023/06/12 09:45:12;;;;;;;3.90;1.65;;;;;;;;;;5134131;27;20409;-78
2023/06/12 09:47:47;;;;;;;2.15;2.05;;;;;;;;;;5137586;27;20031;-76
2023/06/12 09:50:14;;;;;;;2.47;1.92;;;;;;;;;;5139611;27;20050;-77
2023/06/12 09:52:40;;;;;;;2.35;2.10;;;;;;;;;;5139783;27;20034;-78
2023/06/12 09:55:06;;;;;;;2.20;2.05;;;;;;;;;;5140009;27;20038;-78
2023/06/12 09:57:35;;;;;;;8.73;2.20;;;;;;;;;;5139886;27;20063;-77
2023/06/12 10:00:25;;;;;;;5.38;1.73;;;;;;;;;;5122132;27;20037;-79
2023/06/12 10:02:55;;;;;;;2.00;1.90;;;;;;;;;;5122337;27;20063;-78
2023/06/12 10:05:25;;;;;;;1.88;1.73;;;;;;;;;;5139948;27;20304;-78
2023/06/12 10:07:53;;;;;;;2.43;2.00;;;;;;;;;;5118424;27;20411;-77
2023/06/12 10:10:20;;;;;;;1.90;1.80;;;;;;;;;;5138146;27;20087;-77
2023/06/12 10:12:46;;;;;;;3.63;1.90;;;;;;;;;;5115389;27;20023;-77
2023/06/12 10:15:12;;;;;;;2.10;2.00;;;;;;;;;;5136025;27;20035;-77
2023/06/12 10:17:42;;;;;;;2.20;1.90;;;;;;;;;;5116362;27;20039;-79
2023/06/12 10:20:10;;;;;;;2.45;2.17;;;;;;;;;;5137329;27;20037;-77
2023/06/12 10:22:36;;;;;;;3.00;1.90;;;;;;;;;;5134513;27;20031;-78
2023/06/12 10:25:02;;;;;;;1.92;1.83;;;;;;;;;;5114866;27;20023;-78
2023/06/12 10:27:29;;;;;;;2.60;1.92;;;;;;;;;;5114197;27;20031;-79
2023/06/12 10:29:58;;;;;;;2.15;2.00;;;;;;;;;;5096757;27;20186;-79
2023/06/12 10:32:24;;;;;;;2.85;2.10;;;;;;;;;;5113395;27;20034;-78
2023/06/12 10:34:53;;;;;;;3.25;2.13;;;;;;;;;;5131201;27;20039;-77
2023/06/12 10:37:22;;;;;;;6.82;2.38;;;;;;;;;;5113271;27;20190;-78
2023/06/12 10:40:10;;;;;;;8.20;1.95;;;;;;;;;;5132110;27;20035;-77
2023/06/12 10:42:40;;;;;;;3.75;1.98;;;;;;;;;;5131833;27;20035;-79
2023/06/12 10:45:27;;;;;;;2.17;2.08;;;;;;;;;;5132184;27;20038;-78
2023/06/12 10:48:03;;;;;;;4.93;2.45;;;;;;;;;;5131946;27;20058;-78
2023/06/12 10:50:29;;;;;;;3.20;2.00;;;;;;;;;;5131547;27;20054;-77
2023/06/12 10:52:55;;;;;;;5.95;2.10;;;;;;;;;;5113370;27;20027;-78
2023/06/12 10:55:27;;;;;;;2.08;1.98;;;;;;;;;;5131920;27;20385;-78
2023/06/12 10:57:57;;;;;;;1.92;1.83;;;;;;;;;;5113751;27;20031;-78
2023/06/12 11:00:23;;;;;;;2.67;2.50;;;;;;;;;;5131637;27;20039;-78
2023/06/12 11:03:12;;;;;;;7.00;2.30;;;;;;;;;;5131560;27;20031;-79
2023/06/12 11:05:48;;;;;;;10.32;2.40;;;;;;;;;;5131316;27;20505;-78
2023/06/12 11:08:15;;;;;;;2.15;2.05;;;;;;;;;;5112806;27;20077;-78
2023/06/12 11:10:41;;;;;;;4.95;2.30;;;;;;;;;;5131763;27;20043;-78
2023/06/12 11:13:07;;;;;;;5.82;2.17;;;;;;;;;;5131173;27;20358;-78
2023/06/12 11:15:41;;;;;;;2.42;2.20;;;;;;;;;;5131135;27;20050;-79
2023/06/12 11:18:07;;;;;;;2.45;2.13;;;;;;;;;;5131238;27;20409;-77
2023/06/12 11:20:33;;;;;;;3.58;2.38;;;;;;;;;;5130788;27;20598;-78
2023/06/12 11:23:03;;;;;;;3.15;2.22;;;;;;;;;;5112779;27;20031;-77
2023/06/12 11:25:47;;;;;;;6.45;2.50;;;;;;;;;;5131171;27;20039;-78
2023/06/12 11:28:13;;;;;;;4.10;2.10;;;;;;;;;;5130837;27;20171;-79
2023/06/12 11:30:40;;;;;;;5.05;2.22;;;;;;;;;;5130793;27;20039;-76
2023/06/12 11:33:10;;;;;;;3.83;2.17;;;;;;;;;;5131031;27;20039;-77
2023/06/12 11:35:40;;;;;;;6.97;2.10;;;;;;;;;;5095599;27;20480;-78
2023/06/12 11:38:06;;;;;;;2.67;2.13;;;;;;;;;;5131059;27;20524;-79
2023/06/12 11:40:32;;;;;;;4.18;2.17;;;;;;;;;;5112590;27;20035;-78
2023/06/12 11:42:58;;;;;;;4.75;2.17;;;;;;;;;;5130975;27;20037;-77
2023/06/12 11:45:25;;;;;;;4.00;2.20;;;;;;;;;;5112422;27;20401;-78
2023/06/12 11:47:50;;;;;;;2.40;2.20;;;;;;;;;;5116550;27;20090;-78
2023/06/12 11:50:17;;;;;;;3.20;2.10;;;;;;;;;;5099513;27;20523;-78
2023/06/12 11:52:43;;;;;;;2.95;2.50;;;;;;;;;;5117050;27;20519;-78
2023/06/12 11:55:10;;;;;;;4.40;2.40;;;;;;;;;;5116678;27;20512;-79
2023/06/12 11:57:36;;;;;;;2.53;2.30;;;;;;;;;;5106898;27;20023;-77
2023/06/12 12:00:14;;;;;;;2.58;2.38;;;;;;;;;;5150107;27;20263;-77
2023/06/12 12:02:41;;;;;;;3.20;2.42;;;;;;;;;;5135824;27;20038;-78
2023/06/12 12:05:09;;;;;;;3.63;2.42;;;;;;;;;;5134950;27;20122;-78
2023/06/12 12:07:39;;;;;;;2.60;2.40;;;;;;;;;;5134425;27;20035;-78
2023/06/12 12:10:06;;;;;;;11.27;2.45;;;;;;;;;;5134569;27;20111;-78
2023/06/12 12:12:39;;;;;;;2.75;2.17;;;;;;;;;;5134609;27;20501;-80
2023/06/12 12:15:06;;;;;;;2.30;2.20;;;;;;;;;;5134719;27;20500;-79
2023/06/12 12:17:32;;;;;;;4.15;2.40;;;;;;;;;;5116400;27;20043;-78
2023/06/12 12:20:02;;;;;;;4.05;2.40;;;;;;;;;;5115798;27;20401;-77
2023/06/12 12:22:30;;;;;;;2.45;2.25;;;;;;;;;;5116120;27;20037;-79
2023/06/12 12:24:57;;;;;;;3.55;2.33;;;;;;;;;;5134350;27;20408;-78
2023/06/12 12:27:23;;;;;;;3.55;2.20;;;;;;;;;;5134056;27;20070;-79
2023/06/12 12:29:48;;;;;;;4.22;2.50;;;;;;;;;;5098778;27;20218;-78
2023/06/12 12:32:14;;;;;;;2.33;2.20;;;;;;;;;;5134266;27;20182;-78
2023/06/12 12:34:40;;;;;;;3.60;2.25;;;;;;;;;;5134040;27;20513;-79
2023/06/12 12:37:06;;;;;;;1.77;1.67;;;;;;;;;;5134480;27;20041;-79
2023/06/12 12:39:32;;;;;;;2.38;2.17;;;;;;;;;;5098814;27;20479;-79
2023/06/12 12:41:59;;;;;;;4.75;2.55;;;;;;;;;;5134063;27;20035;-78
2023/06/12 12:44:24;;;;;;;2.08;1.88;;;;;;;;;;5133813;27;20122;-79
2023/06/12 12:46:50;;;;;;;2.00;1.90;;;;;;;;;;5133986;27;20031;-79
2023/06/12 12:49:17;;;;;;;2.10;2.00;;;;;;;;;;5115513;27;20049;-79
2023/06/12 12:51:43;;;;;;;7.00;2.92;;;;;;;;;;5133735;27;20057;-80
2023/06/12 12:54:09;;;;;;;2.30;2.20;;;;;;;;;;5115301;27;20059;-79
2023/06/12 12:56:35;;;;;;;2.45;2.20;;;;;;;;;;5133487;27;20085;-79
2023/06/12 12:59:01;;;;;;;3.22;2.70;;;;;;;;;;5132975;27;20426;-79
2023/06/12 13:01:26;;;;;;;2.47;2.00;;;;;;;;;;5133678;27;20031;-78
2023/06/12 13:03:53;;;;;;;2.92;2.10;;;;;;;;;;5133910;27;20122;-79
2023/06/12 13:06:19;;;;;;;2.15;1.95;;;;;;;;;;5115269;27;20557;-78
2023/06/12 13:08:46;;;;;;;2.38;2.28;;;;;;;;;;5133294;27;20055;-79
2023/06/12 13:11:12;;;;;;;3.08;1.88;;;;;;;;;;5133953;27;20053;-79
2023/06/12 13:13:38;;;;;;;3.20;2.33;;;;;;;;;;5134179;27;20035;-79
2023/06/12 13:16:05;;;;;;;3.50;2.20;;;;;;;;;;5117440;27;20035;-81
2023/06/12 13:18:32;;;;;;;3.38;2.00;;;;;;;;;;5115999;27;20042;-80
2023/06/12 13:20:58;;;;;;;2.42;2.00;;;;;;;;;;5117351;27;20103;-79
2023/06/12 13:23:24;;;;;;;2.47;2.28;;;;;;;;;;5145977;27;20035;-79
2023/06/12 13:25:50;;;;;;;3.03;2.20;;;;;;;;;;5145285;27;20042;-80
2023/06/12 13:28:16;;;;;;;3.20;2.45;;;;;;;;;;5116401;27;20035;-81
2023/06/12 13:30:43;;;;;;;3.00;2.47;;;;;;;;;;5114391;27;20095;-79
2023/06/12 13:33:09;;;;;;;2.03;1.80;;;;;;;;;;5133002;27;20122;-79
2023/06/12 13:35:34;;;;;;;2.30;2.20;;;;;;;;;;5114406;27;20031;-79
2023/06/12 13:38:00;;;;;;;3.05;2.17;;;;;;;;;;5133155;27;20114;-78
2023/06/12 13:40:26;;;;;;;2.17;1.98;;;;;;;;;;5132507;27;20624;-78
2023/06/12 13:42:52;;;;;;;2.55;2.35;;;;;;;;;;5115322;27;20050;-78
2023/06/12 13:45:19;;;;;;;1.90;1.80;;;;;;;;;;5131834;27;20037;-79
2023/06/12 13:47:46;;;;;;;2.63;2.42;;;;;;;;;;5142597;27;20034;-77
2023/06/12 13:50:12;;;;;;;3.00;1.92;;;;;;;;;;5133219;27;20292;-77
2023/06/12 13:52:38;;;;;;;2.80;2.00;;;;;;;;;;5132527;27;20072;-78
2023/06/12 13:55:04;;;;;;;2.20;2.00;;;;;;;;;;5114452;27;20042;-78
2023/06/12 13:57:31;;;;;;;2.42;2.22;;;;;;;;;;5096982;27;20027;-77
2023/06/12 13:59:57;;;;;;;2.85;2.65;;;;;;;;;;5132564;27;20047;-78
2023/06/12 14:02:23;;;;;;;2.53;2.33;;;;;;;;;;5132434;27;20031;-78
2023/06/12 14:04:49;;;;;;;3.35;2.10;;;;;;;;;;5113812;27;20035;-78
2023/06/12 14:07:15;;;;;;;2.30;2.20;;;;;;;;;;5132412;27;20110;-79
2023/06/12 14:09:41;;;;;;;3.53;2.00;;;;;;;;;;5130945;27;20105;-79
2023/06/12 14:12:08;;;;;;;2.40;2.00;;;;;;;;;;5113633;27;20126;-77
2023/06/12 14:14:34;;;;;;;2.17;2.08;;;;;;;;;;5131809;27;20035;-78
2023/06/12 14:17:00;;;;;;;4.10;2.05;;;;;;;;;;5114001;27;20414;-78
2023/06/12 14:19:26;;;;;;;7.15;2.53;;;;;;;;;;5113842;27;20031;-80
2023/06/12 14:21:52;;;;;;;4.22;1.98;;;;;;;;;;5114198;27;20039;-79
2023/06/12 14:24:18;;;;;;;1.88;1.77;;;;;;;;;;5131792;27;20446;-79
2023/06/12 14:26:44;;;;;;;2.80;1.77;;;;;;;;;;5096375;27;20031;-79
2023/06/12 14:29:10;;;;;;;2.47;2.05;;;;;;;;;;5113353;27;20127;-78
2023/06/12 14:31:36;;;;;;;4.53;2.17;;;;;;;;;;5096355;27;20035;-79
2023/06/12 14:34:02;;;;;;;2.35;2.15;;;;;;;;;;5096786;27;20039;-78
2023/06/12 14:36:28;;;;;;;3.35;1.63;;;;;;;;;;5113257;27;20087;-80
2023/06/12 14:38:54;;;;;;;2.45;2.25;;;;;;;;;;5131828;27;20035;-79
2023/06/12 14:41:20;;;;;;;2.10;2.00;;;;;;;;;;5131598;27;20042;-79
2023/06/12 14:43:46;;;;;;;6.03;2.00;;;;;;;;;;5131868;27;20514;-80